createdAt,value
2017-04-01T07:16:09.212Z,71.76
2017-04-01T07:17:09.908Z,72.43
2017-04-01T07:18:10.597Z,71.95
2017-04-01T07:19:11.373Z,72.14
2017-04-01T07:20:12.080Z,71.86
2017-04-01T07:21:12.987Z,72.49
2017-04-01T07:22:15.891Z,73.16
2017-04-01T07:23:17.642Z,72.2
2017-04-01T07:24:18.337Z,73.26
2017-04-01T07:25:19.028Z,72.59
2017-04-01T07:26:20.590Z,72.68
2017-04-01T07:27:21.310Z,73.07
2017-04-01T07:28:22.017Z,73.55
2017-04-01T07:29:22.824Z,72.78
2017-04-01T07:30:23.526Z,72.59
2017-04-01T07:31:24.225Z,72.59
2017-04-01T07:32:24.926Z,72.59
2017-04-01T07:33:27.047Z,72.59
2017-04-01T07:34:27.166Z,73.16
2017-04-01T07:35:27.861Z,72.49
2017-04-01T07:36:28.732Z,72.3
2017-04-01T07:37:29.418Z,72.59
2017-04-01T07:38:30.117Z,72.01
2017-04-01T07:39:31.610Z,72.11
2017-04-01T07:40:32.727Z,71.34
2017-04-01T07:41:33.443Z,70.67
2017-04-01T07:42:34.139Z,71.05
2017-04-01T07:43:35.312Z,71.63
2017-04-01T07:44:35.984Z,71.53
2017-04-01T07:45:36.803Z,71.34
2017-04-01T07:46:37.502Z,69.81
2017-04-01T07:47:38.231Z,69.71
2017-04-01T07:48:38.963Z,70.86
2017-04-01T07:49:39.683Z,70
2017-04-01T07:50:40.413Z,69.81
2017-04-01T07:51:41.098Z,69.84
2017-04-01T07:52:41.825Z,69.36
2017-04-01T07:53:42.532Z,68.12
2017-04-01T07:54:43.263Z,68.12
2017-04-01T07:55:43.980Z,68.12
2017-04-01T07:56:44.676Z,67.73
2017-04-01T07:57:45.377Z,67.73
2017-04-01T07:58:46.149Z,68.02
2017-04-01T07:59:46.873Z,68.21
2017-04-01T08:00:47.567Z,67.44
2017-04-01T08:01:48.433Z,67.67
2017-04-01T08:02:49.239Z,67.38
2017-04-01T08:03:50.236Z,67.09
2017-04-01T08:04:50.935Z,67
2017-04-01T08:05:51.627Z,67.29
2017-04-01T08:06:52.318Z,67.29
2017-04-01T08:07:53.019Z,67.09
2017-04-01T08:08:53.797Z,66.8
2017-04-01T08:09:54.476Z,66.42
2017-04-01T08:10:55.182Z,65.94
2017-04-01T08:11:55.885Z,66.29
2017-04-01T08:12:56.593Z,66.19
2017-04-01T08:13:57.283Z,66.96
2017-04-01T08:14:58.098Z,68.02
2017-04-01T08:15:59.708Z,67.92
2017-04-01T08:17:00.281Z,68.5
2017-04-01T08:18:00.957Z,68.5
2017-04-01T08:19:01.752Z,68.69
2017-04-01T08:20:02.453Z,67.73
2017-04-01T08:21:03.138Z,67.83
2017-04-01T08:22:03.870Z,68.02
2017-04-01T08:23:04.650Z,67.35
2017-04-01T08:24:05.340Z,67.63
2017-04-01T08:25:06.059Z,68.24
2017-04-01T08:26:07.170Z,67.47
2017-04-01T08:27:07.875Z,67.44
2017-04-01T08:28:08.602Z,67.35
2017-04-01T08:29:09.276Z,67.54
2017-04-01T08:30:09.993Z,68.12
2017-04-01T08:31:10.686Z,68.79
2017-04-01T08:32:11.374Z,68.66
2017-04-01T08:33:12.321Z,69.23
2017-04-01T08:34:15.674Z,69.33
2017-04-01T08:35:16.392Z,69.33
2017-04-01T08:36:17.198Z,69.13
2017-04-01T08:37:17.948Z,69.13
2017-04-01T08:38:19.386Z,68.66
2017-04-01T08:39:20.124Z,67.89
2017-04-01T08:40:20.915Z,68.27
2017-04-01T08:41:21.645Z,67.99
2017-04-01T08:42:22.446Z,67.54
2017-04-01T08:43:23.155Z,67.25
2017-04-01T08:44:24.472Z,67.16
2017-04-01T08:45:25.211Z,66.49
2017-04-01T08:46:25.905Z,66
2017-04-01T08:47:26.650Z,65.72
2017-04-01T08:48:27.360Z,65.43
2017-04-01T08:49:28.071Z,65.81
2017-04-01T08:50:28.878Z,65.62
2017-04-01T08:51:29.915Z,65.52
2017-04-01T08:52:30.614Z,66
2017-04-01T08:53:31.808Z,66
2017-04-01T08:54:32.505Z,65.62
2017-04-01T08:55:34.042Z,66.1
2017-04-01T08:56:34.743Z,64.85
2017-04-01T08:57:35.443Z,64.02
2017-04-01T08:58:36.204Z,63.79
2017-04-01T08:59:37.894Z,63.83
2017-04-01T09:00:38.510Z,64.02
2017-04-01T09:01:39.220Z,64.09
2017-04-01T09:02:41.281Z,63.6
2017-04-01T09:03:41.996Z,63.99
2017-04-01T09:04:43.279Z,63.99
2017-04-01T09:05:44.756Z,63.64
2017-04-01T09:06:45.776Z,63.64
2017-04-01T09:07:46.464Z,62.74
2017-04-01T09:08:47.386Z,62.93
2017-04-01T09:09:49.340Z,64.09
2017-04-01T09:10:50.358Z,64.09
2017-04-01T09:11:51.955Z,64.37
2017-04-01T09:12:54.577Z,64.09
2017-04-01T09:13:55.230Z,64.28
2017-04-01T09:14:56.016Z,63.89
2017-04-01T09:15:57.923Z,64.18
2017-04-01T09:16:58.639Z,64.4
2017-04-01T09:17:59.358Z,63.06
2017-04-01T09:19:00.077Z,62.96
2017-04-01T09:20:00.776Z,62.29
2017-04-01T09:21:01.473Z,62.1
2017-04-01T09:22:02.186Z,62.01
2017-04-01T09:23:02.885Z,61.72
2017-04-01T09:24:03.587Z,61.81
2017-04-01T09:25:04.296Z,61.52
2017-04-01T09:26:05.006Z,61.65
2017-04-01T09:27:05.697Z,61.75
2017-04-01T09:28:06.397Z,60.78
2017-04-01T09:29:07.155Z,61.08
2017-04-01T09:30:07.858Z,61.17
2017-04-01T09:31:08.564Z,60.75
2017-04-01T09:32:09.248Z,61.14
2017-04-01T09:33:09.926Z,60.6
2017-04-01T09:34:10.617Z,60.57
2017-04-01T09:35:11.344Z,60.75
2017-04-01T09:36:12.053Z,60.95
2017-04-01T09:37:12.739Z,60.75
2017-04-01T09:38:13.433Z,59.32
2017-04-01T09:39:14.804Z,58.74
2017-04-01T09:40:15.495Z,59.12
2017-04-01T09:41:16.319Z,59.25
2017-04-01T09:42:17.026Z,59.25
2017-04-01T09:43:17.712Z,59.25
2017-04-01T09:44:18.424Z,58.87
2017-04-01T09:45:19.119Z,58.67
2017-04-01T09:46:19.817Z,58.67
2017-04-01T09:47:20.513Z,58.8
2017-04-01T09:48:21.195Z,58.58
2017-04-01T09:49:21.896Z,58.29
2017-04-01T09:50:22.581Z,58.22
2017-04-01T09:51:23.282Z,58.13
2017-04-01T09:52:23.998Z,57.81
2017-04-01T09:53:24.687Z,58
2017-04-01T09:54:25.380Z,58.58
2017-04-01T09:55:26.078Z,58.96
2017-04-01T09:56:26.784Z,57.81
2017-04-01T09:57:27.486Z,58.2
2017-04-01T09:58:28.166Z,57.97
2017-04-01T09:59:28.849Z,58
2017-04-01T10:00:29.538Z,58.36
2017-04-01T10:01:30.234Z,57.78
2017-04-01T10:02:30.941Z,57.23
2017-04-01T10:03:31.657Z,56.95
2017-04-01T10:04:32.333Z,57.04
2017-04-01T10:05:33.021Z,57.62
2017-04-01T10:06:33.710Z,57.33
2017-04-01T10:07:34.409Z,58.1
2017-04-01T10:08:35.100Z,57.23
2017-04-01T10:09:35.820Z,57.23
2017-04-01T10:10:36.511Z,57.71
2017-04-01T10:11:37.223Z,57.43
2017-04-01T10:12:37.926Z,57.62
2017-04-01T10:13:38.606Z,57.52
2017-04-01T10:14:39.302Z,57.33
2017-04-01T10:15:40.028Z,56.76
2017-04-01T10:16:40.739Z,56.37
2017-04-01T10:17:41.420Z,56.66
2017-04-01T10:18:42.136Z,56.78
2017-04-01T10:19:42.865Z,58.1
2017-04-01T10:20:43.567Z,57.9
2017-04-01T10:21:44.261Z,58.58
2017-04-01T10:22:44.958Z,58.64
2017-04-01T10:23:45.645Z,59.7
2017-04-01T10:24:46.355Z,59.25
2017-04-01T10:25:47.065Z,58.77
2017-04-01T10:26:47.816Z,58.96
2017-04-01T10:27:48.523Z,58.58
2017-04-01T10:28:49.213Z,60.02
2017-04-01T10:29:49.917Z,59.54
2017-04-01T10:30:50.608Z,59.34
2017-04-01T10:31:51.296Z,59.64
2017-04-01T10:32:52.057Z,58.87
2017-04-01T10:33:52.740Z,58.48
2017-04-01T10:34:53.421Z,58.61
2017-04-01T10:35:54.130Z,57.71
2017-04-01T10:36:54.815Z,58
2017-04-01T10:37:55.505Z,58.77
2017-04-01T10:38:56.224Z,58
2017-04-01T10:39:56.930Z,58
2017-04-01T10:40:57.611Z,57.9
2017-04-01T10:41:58.310Z,58.1
2017-04-01T10:42:58.999Z,58.29
2017-04-01T10:43:59.705Z,57.9
2017-04-01T10:45:00.411Z,57.43
2017-04-01T10:46:01.140Z,57.14
2017-04-01T10:47:01.811Z,57.52
2017-04-01T10:48:02.504Z,57.33
2017-04-01T10:49:03.196Z,57.23
2017-04-01T10:50:03.920Z,57.62
2017-04-01T10:51:04.636Z,57.43
2017-04-01T10:52:05.325Z,57.52
2017-04-01T10:53:06.057Z,57.52
2017-04-01T10:54:06.748Z,57.9
2017-04-01T10:55:07.457Z,57.33
2017-04-01T10:56:08.156Z,57.9
2017-04-01T10:57:08.881Z,58.1
2017-04-01T10:58:09.581Z,57.9
2017-04-01T10:59:10.278Z,57.62
2017-04-01T11:00:11.012Z,57.43
2017-04-01T11:01:11.724Z,58.1
2017-04-01T11:02:12.411Z,57.9
2017-04-01T11:03:13.140Z,58.1
2017-04-01T11:04:13.840Z,57.9
2017-04-01T11:05:14.536Z,57.81
2017-04-01T11:06:15.227Z,57.93
2017-04-01T11:07:15.936Z,57.62
2017-04-01T11:08:16.660Z,57.43
2017-04-01T11:09:17.353Z,57.55
2017-04-01T11:10:18.067Z,57.33
2017-04-01T11:11:18.773Z,57.14
2017-04-01T11:12:19.470Z,57.36
2017-04-01T11:13:20.155Z,56.85
2017-04-01T11:14:20.845Z,57.36
2017-04-01T11:15:21.605Z,57.26
2017-04-01T11:16:22.287Z,57.36
2017-04-01T11:17:22.974Z,57.75
2017-04-01T11:18:23.672Z,57.62
2017-04-01T11:19:24.452Z,58
2017-04-01T11:20:25.181Z,57.9
2017-04-01T11:21:25.886Z,58.1
2017-04-01T11:22:26.592Z,57.9
2017-04-01T11:23:27.283Z,58.2
2017-04-01T11:24:27.987Z,57.71
2017-04-01T11:25:28.679Z,58.1
2017-04-01T11:26:29.385Z,58.77
2017-04-01T11:27:30.085Z,58.87
2017-04-01T11:28:30.797Z,59.06
2017-04-01T11:29:31.516Z,59.54
2017-04-01T11:30:32.215Z,59.34
2017-04-01T11:31:32.918Z,59.44
2017-04-01T11:32:33.626Z,59.16
2017-04-01T11:33:34.357Z,60.02
2017-04-01T11:34:35.047Z,59.89
2017-04-01T11:35:35.735Z,60.28
2017-04-01T11:36:36.419Z,60.21
2017-04-01T11:37:37.157Z,60.31
2017-04-01T11:38:37.847Z,60.31
2017-04-01T11:39:38.572Z,60.78
2017-04-01T11:40:39.289Z,60.78
2017-04-01T11:41:39.995Z,60.78
2017-04-01T11:42:40.742Z,60.98
2017-04-01T11:43:41.470Z,60.78
2017-04-01T11:44:42.146Z,60.88
2017-04-01T11:45:42.878Z,61.36
2017-04-01T11:46:43.580Z,61.14
2017-04-01T11:47:44.286Z,62.29
2017-04-01T11:48:44.985Z,61.36
2017-04-01T11:49:45.662Z,60.98
2017-04-01T11:50:46.367Z,60.98
2017-04-01T11:51:47.098Z,60.88
2017-04-01T11:52:47.790Z,60.6
2017-04-01T11:53:48.483Z,60.78
2017-04-01T11:54:49.176Z,60.69
2017-04-01T11:55:49.875Z,60.4
2017-04-01T11:56:50.567Z,60.6
2017-04-01T11:57:51.291Z,61.17
2017-04-01T11:58:52.005Z,60.69
2017-04-01T11:59:52.703Z,60.88
2017-04-01T12:00:53.388Z,61.08
2017-04-01T12:01:54.073Z,61.36
2017-04-01T12:02:54.767Z,61.27
2017-04-01T12:03:55.465Z,61.27
2017-04-01T12:04:56.158Z,61.36
2017-04-01T12:05:56.878Z,61.36
2017-04-01T12:06:57.585Z,61.27
2017-04-01T12:07:58.277Z,60.98
2017-04-01T12:08:58.965Z,60.78
2017-04-01T12:09:59.657Z,60.98
2017-04-01T12:11:00.397Z,60.72
2017-04-01T12:12:01.137Z,60.63
2017-04-01T12:13:01.844Z,60.24
2017-04-01T12:14:02.532Z,60.24
2017-04-01T12:15:03.245Z,60.24
2017-04-01T12:16:03.958Z,60.14
2017-04-01T12:17:04.673Z,60.31
2017-04-01T12:18:05.360Z,60.6
2017-04-01T12:19:06.068Z,60.6
2017-04-01T12:20:06.758Z,60.78
2017-04-01T12:21:07.455Z,60.78
2017-04-01T12:22:08.139Z,60.69
2017-04-01T12:23:08.848Z,60.6
2017-04-01T12:24:09.549Z,60.78
2017-04-01T12:25:10.240Z,60.63
2017-04-01T12:26:10.938Z,60.34
2017-04-01T12:27:11.678Z,60.05
2017-04-01T12:28:12.402Z,60.05
2017-04-01T12:29:13.126Z,60.34
2017-04-01T12:30:13.833Z,60.14
2017-04-01T12:31:14.536Z,59.83
2017-04-01T12:32:15.244Z,59.86
2017-04-01T12:33:15.964Z,59.57
2017-04-01T12:34:16.719Z,59.47
2017-04-01T12:35:17.442Z,59.38
2017-04-01T12:36:18.132Z,59.09
2017-04-01T12:37:18.827Z,59.47
2017-04-01T12:38:19.517Z,59.57
2017-04-01T12:39:20.205Z,59.19
2017-04-01T12:40:20.915Z,59.95
2017-04-01T12:41:21.609Z,59.57
2017-04-01T12:42:22.314Z,59.95
2017-04-01T12:43:22.992Z,59.41
2017-04-01T12:44:23.700Z,59.12
2017-04-01T12:45:24.411Z,59.31
2017-04-01T12:46:25.167Z,59.5
2017-04-01T12:47:25.863Z,58.35
2017-04-01T12:48:26.586Z,58.15
2017-04-01T12:49:27.303Z,58.25
2017-04-01T12:50:27.970Z,58.15
2017-04-01T12:51:28.671Z,58.25
2017-04-01T12:52:29.432Z,58.92
2017-04-01T12:53:30.128Z,57.97
2017-04-01T12:54:30.830Z,58.25
2017-04-01T12:55:31.534Z,58.25
2017-04-01T12:56:32.230Z,58.54
2017-04-01T12:57:32.943Z,57.87
2017-04-01T12:58:33.667Z,58.06
2017-04-01T12:59:34.359Z,57.97
2017-04-01T13:00:35.091Z,57.77
2017-04-01T13:01:35.810Z,57.87
2017-04-01T13:02:36.525Z,58.09
2017-04-01T13:03:37.237Z,58.15
2017-04-01T13:04:37.943Z,57.97
2017-04-01T13:05:38.654Z,58.06
2017-04-01T13:06:39.371Z,57.97
2017-04-01T13:07:40.066Z,58.06
2017-04-01T13:08:40.821Z,58.64
2017-04-01T13:09:41.509Z,59.02
2017-04-01T13:10:42.209Z,58.73
2017-04-01T13:11:42.890Z,58.28
2017-04-01T13:12:43.585Z,57.77
2017-04-01T13:13:44.300Z,57.03
2017-04-01T13:14:44.981Z,57
2017-04-01T13:15:45.683Z,56.84
2017-04-01T13:16:46.386Z,56.74
2017-04-01T13:17:47.075Z,56.36
2017-04-01T13:18:47.763Z,56.74
2017-04-01T13:19:48.458Z,56.26
2017-04-01T13:20:49.166Z,56.74
2017-04-01T13:21:49.863Z,57.22
2017-04-01T13:22:50.559Z,57
2017-04-01T13:23:51.262Z,57.13
2017-04-01T13:24:51.944Z,57.51
2017-04-01T13:25:52.637Z,56.93
2017-04-01T13:26:53.330Z,56.45
2017-04-01T13:27:54.076Z,56.38
2017-04-01T13:28:54.772Z,56.48
2017-04-01T13:29:55.461Z,56.1
2017-04-01T13:30:56.171Z,55.9
2017-04-01T13:31:56.897Z,56.36
2017-04-01T13:32:57.601Z,56.74
2017-04-01T13:33:58.392Z,56.87
2017-04-01T13:34:59.133Z,56.2
2017-04-01T13:35:59.847Z,56
2017-04-01T13:37:00.569Z,55.9
2017-04-01T13:38:01.293Z,55.52
2017-04-01T13:39:01.975Z,55.59
2017-04-01T13:40:02.679Z,55.4
2017-04-01T13:41:03.377Z,55.98
2017-04-01T13:42:04.089Z,56.07
2017-04-01T13:43:04.796Z,56.07
2017-04-01T13:44:05.505Z,56.36
2017-04-01T13:45:06.196Z,56.74
2017-04-01T13:46:06.923Z,57.03
2017-04-01T13:47:07.626Z,57.9
2017-04-01T13:48:08.321Z,57.03
2017-04-01T13:49:09.058Z,57.6
2017-04-01T13:50:09.749Z,57.1
2017-04-01T13:51:10.445Z,56.84
2017-04-01T13:52:11.169Z,57.03
2017-04-01T13:53:11.901Z,56.74
2017-04-01T13:54:12.598Z,56.55
2017-04-01T13:55:13.319Z,57.35
2017-04-01T13:56:14.024Z,57.45
2017-04-01T13:57:14.720Z,56.38
2017-04-01T13:58:15.413Z,56.2
2017-04-01T13:59:16.121Z,55.52
2017-04-01T14:00:16.821Z,55.62
2017-04-01T14:01:17.514Z,56
2017-04-01T14:02:18.236Z,56
2017-04-01T14:03:18.960Z,55.81
2017-04-01T14:04:19.662Z,55.81
2017-04-01T14:05:20.353Z,56.29
2017-04-01T14:06:21.393Z,56.93
2017-04-01T14:07:22.454Z,56.67
2017-04-01T14:08:23.325Z,56.36
2017-04-01T14:09:24.034Z,56.58
2017-04-01T14:10:24.758Z,56.45
2017-04-01T14:11:25.480Z,56.07
2017-04-01T14:12:27.029Z,56.2
2017-04-01T14:13:27.718Z,56.1
2017-04-01T14:14:28.404Z,55.52
2017-04-01T14:15:29.122Z,55.49
2017-04-01T14:16:29.827Z,56.07
2017-04-01T14:17:30.529Z,55.98
2017-04-01T14:18:31.240Z,56.1
2017-04-01T14:19:31.938Z,55.13
2017-04-01T14:20:32.656Z,56.2
2017-04-01T14:21:33.919Z,56
2017-04-01T14:22:35.649Z,56.38
2017-04-01T14:23:36.345Z,56.29
2017-04-01T14:24:37.039Z,56.16
2017-04-01T14:25:37.754Z,56.26
2017-04-01T14:26:38.446Z,56.45
2017-04-01T14:27:39.129Z,56.26
2017-04-01T14:28:39.841Z,56.07
2017-04-01T14:29:40.548Z,56.58
2017-04-01T14:30:41.906Z,56.29
2017-04-01T14:31:43.514Z,56.07
2017-04-01T14:32:44.221Z,55.3
2017-04-01T14:33:44.933Z,55.43
2017-04-01T14:34:45.652Z,56.1
2017-04-01T14:35:46.347Z,55.13
2017-04-01T14:36:47.048Z,55.04
2017-04-01T14:37:47.752Z,54.65
2017-04-01T14:38:48.457Z,54.75
2017-04-01T14:39:49.167Z,55.13
2017-04-01T14:40:49.986Z,54.85
2017-04-01T14:41:50.688Z,55.33
2017-04-01T14:42:51.418Z,55.71
2017-04-01T14:43:52.107Z,55.62
2017-04-01T14:44:54.061Z,55.62
2017-04-01T14:45:54.834Z,55.52
2017-04-01T14:46:55.521Z,55.62
2017-04-01T14:47:56.217Z,55.81
2017-04-01T14:48:56.935Z,55.49
2017-04-01T14:49:57.629Z,56.1
2017-04-01T14:50:58.316Z,55.43
2017-04-01T14:51:59.020Z,55.52
2017-04-01T14:52:59.713Z,55.9
2017-04-01T14:54:00.410Z,55.23
2017-04-01T14:55:01.109Z,55.33
2017-04-01T14:56:01.813Z,55.52
2017-04-01T14:57:02.514Z,55.62
2017-04-01T14:58:03.216Z,55.52
2017-04-01T14:59:03.916Z,55.59
2017-04-01T15:00:04.609Z,55.43
2017-04-01T15:01:05.364Z,55.23
2017-04-01T15:02:06.093Z,55.33
2017-04-01T15:03:06.822Z,55.52
2017-04-01T15:04:07.614Z,55.23
2017-04-01T15:05:08.554Z,55.71
2017-04-01T15:06:09.333Z,55.62
2017-04-01T15:07:10.023Z,55.43
2017-04-01T15:08:10.707Z,55.81
2017-04-01T15:09:11.417Z,56.16
2017-04-01T15:10:12.121Z,56.16
2017-04-01T15:11:12.820Z,56.07
2017-04-01T15:12:13.524Z,56.07
2017-04-01T15:13:14.232Z,56.16
2017-04-01T15:14:14.952Z,55.98
2017-04-01T15:15:15.698Z,55.59
2017-04-01T15:16:16.419Z,56.16
2017-04-01T15:17:17.127Z,56.16
2017-04-01T15:18:17.853Z,56.07
2017-04-01T15:19:18.550Z,56.26
2017-04-01T15:20:19.255Z,55.88
2017-04-01T15:21:19.965Z,56.16
2017-04-01T15:22:20.665Z,56.07
2017-04-01T15:23:21.358Z,55.78
2017-04-01T15:24:22.057Z,56.16
2017-04-01T15:25:22.759Z,56.26
2017-04-01T15:26:23.446Z,56.16
2017-04-01T15:27:24.123Z,55.78
2017-04-01T15:28:24.828Z,56.45
2017-04-01T15:29:25.515Z,56.65
2017-04-01T15:30:26.214Z,56.55
2017-04-01T15:31:26.922Z,56.74
2017-04-01T15:32:27.616Z,56.45
2017-04-01T15:33:28.305Z,56.45
2017-04-01T15:34:29.009Z,56.55
2017-04-01T15:35:29.702Z,56.55
2017-04-01T15:36:30.397Z,56.52
2017-04-01T15:37:31.096Z,56.93
2017-04-01T15:38:31.785Z,57.2
2017-04-01T15:39:32.498Z,57
2017-04-01T15:40:33.220Z,57.29
2017-04-01T15:41:33.934Z,57.29
2017-04-01T15:42:34.621Z,57.42
2017-04-01T15:43:35.326Z,57.2
2017-04-01T15:44:36.024Z,57.29
2017-04-01T15:45:36.725Z,57.48
2017-04-01T15:46:37.899Z,57.58
2017-04-01T15:47:38.656Z,57.97
2017-04-01T15:48:39.362Z,57.77
2017-04-01T15:49:40.073Z,57.48
2017-04-01T15:50:40.756Z,58.15
2017-04-01T15:51:41.542Z,57.58
2017-04-01T15:52:42.255Z,58.15
2017-04-01T15:53:42.947Z,57.77
2017-04-01T15:54:43.643Z,57.87
2017-04-01T15:55:44.342Z,57.87
2017-04-01T15:56:45.034Z,57.97
2017-04-01T15:57:45.732Z,57.48
2017-04-01T15:58:46.488Z,57.48
2017-04-01T15:59:47.235Z,57.87
2017-04-01T16:00:47.954Z,57.77
2017-04-01T16:01:48.647Z,57.39
2017-04-01T16:02:49.361Z,57.97
2017-04-01T16:03:50.061Z,58.22
2017-04-01T16:04:50.747Z,57.97
2017-04-01T16:05:51.459Z,57.87
2017-04-01T16:06:52.170Z,57.84
2017-04-01T16:07:52.876Z,57.84
2017-04-01T16:08:53.625Z,57.93
2017-04-01T16:09:54.341Z,58.25
2017-04-01T16:10:55.037Z,58.35
2017-04-01T16:11:55.743Z,58.35
2017-04-01T16:12:56.428Z,58.32
2017-04-01T16:13:57.142Z,58.25
2017-04-01T16:14:57.844Z,58.22
2017-04-01T16:15:58.538Z,58.03
2017-04-01T16:16:59.442Z,58.32
2017-04-01T16:18:00.130Z,57.93
2017-04-01T16:19:00.843Z,58.03
2017-04-01T16:20:01.543Z,57.87
2017-04-01T16:21:02.270Z,58.22
2017-04-01T16:22:03.005Z,58.32
2017-04-01T16:23:03.836Z,58.13
2017-04-01T16:24:04.553Z,58.42
2017-04-01T16:25:05.273Z,58.32
2017-04-01T16:26:05.980Z,58.7
2017-04-01T16:27:06.870Z,58.51
2017-04-01T16:28:07.593Z,58.61
2017-04-01T16:29:08.283Z,58.7
2017-04-01T16:30:09.051Z,58.51
2017-04-01T16:31:09.758Z,58.89
2017-04-01T16:32:10.449Z,58.99
2017-04-01T16:33:11.302Z,58.51
2017-04-01T16:34:11.996Z,59.19
2017-04-01T16:35:12.863Z,58.8
2017-04-01T16:36:13.574Z,58.99
2017-04-01T16:37:14.273Z,58.99
2017-04-01T16:38:15.008Z,58.99
2017-04-01T16:39:15.701Z,58.89
2017-04-01T16:40:16.405Z,58.89
2017-04-01T16:41:17.092Z,58.89
2017-04-01T16:42:17.797Z,59.09
2017-04-01T16:43:18.605Z,59.66
2017-04-01T16:44:19.303Z,58.89
2017-04-01T16:45:20.017Z,59.57
2017-04-01T16:46:20.981Z,59.38
2017-04-01T16:47:21.688Z,58.99
2017-04-01T16:48:22.413Z,58.61
2017-04-01T16:49:23.121Z,59.47
2017-04-01T16:50:23.966Z,59.66
2017-04-01T16:51:24.661Z,60.05
2017-04-01T16:52:25.354Z,60.72
2017-04-01T16:53:26.045Z,61.08
2017-04-01T16:54:26.729Z,61.11
2017-04-01T16:55:27.435Z,61.94
2017-04-01T16:56:28.148Z,62.04
2017-04-01T16:57:28.856Z,61.94
2017-04-01T16:58:29.560Z,62.13
2017-04-01T16:59:30.289Z,62.16
2017-04-01T17:00:31.014Z,62.13
2017-04-01T17:01:31.709Z,62.04
2017-04-01T17:02:32.424Z,62.23
2017-04-01T17:03:33.161Z,62.42
2017-04-01T17:04:33.848Z,62.52
2017-04-01T17:05:34.539Z,62.71
2017-04-01T17:06:35.251Z,62.71
2017-04-01T17:07:35.951Z,63.09
2017-04-01T17:08:36.698Z,62.81
2017-04-01T17:09:37.396Z,63.28
2017-04-01T17:10:38.120Z,63.67
2017-04-01T17:11:38.805Z,63.76
2017-04-01T17:12:39.494Z,64.05
2017-04-01T17:13:40.187Z,64.53
2017-04-01T17:14:40.909Z,64.34
2017-04-01T17:15:41.591Z,64.69
2017-04-01T17:16:42.296Z,64.89
2017-04-01T17:17:43.011Z,65.08
2017-04-01T17:18:43.700Z,65.27
2017-04-01T17:19:44.389Z,64.89
2017-04-01T17:20:45.080Z,65.46
2017-04-01T17:21:45.772Z,65.56
2017-04-01T17:22:46.471Z,66.03
2017-04-01T17:23:47.161Z,66.03
2017-04-01T17:24:47.875Z,66.03
2017-04-01T17:25:48.571Z,66.52
2017-04-01T17:26:49.266Z,66.33
2017-04-01T17:27:49.975Z,66.42
2017-04-01T17:28:50.654Z,66.8
2017-04-01T17:29:51.351Z,66.52
2017-04-01T17:30:52.041Z,67
2017-04-01T17:31:52.738Z,66.8
2017-04-01T17:32:53.474Z,67.38
2017-04-01T17:33:54.180Z,67.09
2017-04-01T17:34:54.879Z,67.09
2017-04-01T17:35:55.611Z,67.76
2017-04-01T17:36:56.298Z,67.67
2017-04-01T17:37:56.982Z,67.38
2017-04-01T17:38:57.680Z,67.83
2017-04-01T17:39:58.361Z,67.67
2017-04-01T17:40:59.071Z,67.67
2017-04-01T17:41:59.778Z,67.92
2017-04-01T17:43:00.472Z,67.54
2017-04-01T17:44:01.156Z,67.92
2017-04-01T17:45:01.841Z,67.73
2017-04-01T17:46:02.545Z,68.02
2017-04-01T17:47:03.240Z,68.3
2017-04-01T17:48:03.924Z,68.79
2017-04-01T17:49:04.613Z,68.4
2017-04-01T17:50:05.305Z,68.5
2017-04-01T17:51:06.000Z,68.5
2017-04-01T17:52:06.695Z,68.4
2017-04-01T17:53:07.375Z,68.59
2017-04-01T17:54:08.127Z,68.5
2017-04-01T17:55:08.792Z,68.5
2017-04-01T17:56:09.487Z,68.4
2017-04-01T17:57:10.177Z,68.69
2017-04-01T17:58:10.871Z,67.83
2017-04-01T17:59:11.594Z,67.73
2017-04-01T18:00:12.249Z,68.3
2017-04-01T18:01:13.030Z,68.21
2017-04-01T18:02:13.884Z,68.12
2017-04-01T18:03:14.669Z,68.02
2017-04-01T18:04:15.486Z,68.3
2017-04-01T18:05:16.220Z,68.59
2017-04-01T18:06:16.947Z,68.4
2017-04-01T18:07:17.682Z,68.5
2017-04-01T18:08:18.534Z,68.3
2017-04-01T18:09:19.358Z,67.92
2017-04-01T18:10:20.209Z,68.02
2017-04-01T18:11:21.031Z,67.63
2017-04-01T18:12:21.740Z,67.83
2017-04-01T18:13:22.473Z,67.73
2017-04-01T18:14:23.225Z,68.21
2017-04-01T18:15:24.013Z,67.63
2017-04-01T18:16:24.713Z,68.21
2017-04-01T18:17:25.393Z,68.59
2017-04-01T18:18:26.090Z,68.79
2017-04-01T18:19:26.782Z,68.5
2017-04-01T18:20:27.488Z,68.59
2017-04-01T18:21:28.983Z,68.59
2017-04-01T18:22:30.315Z,68.59
2017-04-01T18:23:31.009Z,69.26
2017-04-01T18:24:31.689Z,69.17
2017-04-01T18:25:32.390Z,68.69
2017-04-01T18:26:33.093Z,68.79
2017-04-01T18:27:33.770Z,68.79
2017-04-01T18:28:34.673Z,69.17
2017-04-01T18:29:36.244Z,69.36
2017-04-01T18:30:36.991Z,69.26
2017-04-01T18:31:37.679Z,68.98
2017-04-01T18:32:38.604Z,69.07
2017-04-01T18:33:39.320Z,68.98
2017-04-01T18:34:40.104Z,69.36
2017-04-01T18:35:40.845Z,69.36
2017-04-01T18:36:41.794Z,69.36
2017-04-01T18:37:43.034Z,69.36
2017-04-01T18:38:43.712Z,69.33
2017-04-01T18:39:44.449Z,69.52
2017-04-01T18:40:45.184Z,70.03
2017-04-01T18:41:45.968Z,70.09
2017-04-01T18:42:46.680Z,69.93
2017-04-01T18:43:47.414Z,69.62
2017-04-01T18:44:48.114Z,70.13
2017-04-01T18:45:48.805Z,69.81
2017-04-01T18:46:49.820Z,69.9
2017-04-01T18:47:50.511Z,70.29
2017-04-01T18:48:51.377Z,70.29
2017-04-01T18:49:52.064Z,70.29
2017-04-01T18:50:52.774Z,70.29
2017-04-01T18:51:53.472Z,70.86
2017-04-01T18:52:54.267Z,70.86
2017-04-01T18:53:54.964Z,70.86
2017-04-01T18:54:55.688Z,71.53
2017-04-01T18:55:56.406Z,71.15
2017-04-01T18:56:57.107Z,71.82
2017-04-01T18:57:57.804Z,71.92
2017-04-01T18:58:58.509Z,71.82
2017-04-01T18:59:59.381Z,72.3
2017-04-01T19:01:00.076Z,72.3
2017-04-01T19:02:00.767Z,72.49
2017-04-01T19:03:01.466Z,73.16
2017-04-01T19:04:02.159Z,72.97
2017-04-01T19:05:02.897Z,72.68
2017-04-01T19:06:03.885Z,72.59
2017-04-01T19:07:04.621Z,73.55
2017-04-01T19:08:05.773Z,73.74
2017-04-01T19:09:06.469Z,73.55
2017-04-01T19:10:07.161Z,73.83
2017-04-01T19:11:07.872Z,74.51
2017-04-01T19:12:08.654Z,75.27
2017-04-01T19:13:09.650Z,75.65
2017-04-01T19:14:10.341Z,75.37
2017-04-01T19:15:11.028Z,76.23
2017-04-01T19:16:11.714Z,76.32
2017-04-01T19:17:12.446Z,76.71
2017-04-01T19:18:13.139Z,77.48
2017-04-01T19:19:13.948Z,77.58
2017-04-01T19:20:14.629Z,77.95
2017-04-01T19:21:15.373Z,77.73
2017-04-01T19:22:16.157Z,77.76
2017-04-01T19:23:16.798Z,77.73
2017-04-01T19:24:17.497Z,77.82
2017-04-01T19:25:18.364Z,77.73
2017-04-01T19:26:19.044Z,77.53
2017-04-01T19:27:19.736Z,77.73
2017-04-01T19:28:20.441Z,77.82
2017-04-01T19:29:21.168Z,78.11
2017-04-01T19:30:21.857Z,78.11
2017-04-01T19:31:22.544Z,78.02
2017-04-01T19:32:23.238Z,77.92
2017-04-01T19:33:24.006Z,78.4
2017-04-01T19:34:24.694Z,78.4
2017-04-01T19:35:25.397Z,78.88
2017-04-01T19:36:26.090Z,78.78
2017-04-01T19:37:26.819Z,78.69
2017-04-01T19:38:27.522Z,79.07
2017-04-01T19:39:28.243Z,79.36
2017-04-01T19:40:28.939Z,79.45
2017-04-01T19:41:29.612Z,79.93
2017-04-01T19:42:30.306Z,79.64
2017-04-01T19:43:31.002Z,80.32
2017-04-01T19:44:31.727Z,80.41
2017-04-01T19:45:32.458Z,80.51
2017-04-01T19:46:33.136Z,80.99
2017-04-01T19:47:33.820Z,81.13
2017-04-01T19:48:34.505Z,81.23
2017-04-01T19:49:35.232Z,80.85
2017-04-01T19:50:35.927Z,81.37
2017-04-01T19:51:36.611Z,81.18
2017-04-01T19:52:37.294Z,81.56
2017-04-01T19:53:37.978Z,81.56
2017-04-01T19:54:38.664Z,81.71
2017-04-01T19:55:39.355Z,81.95
2017-04-01T19:56:40.064Z,81.75
2017-04-01T19:57:40.751Z,82.52
2017-04-01T19:58:41.451Z,82.76
2017-04-01T19:59:42.158Z,82.67
2017-04-01T20:00:42.837Z,83.44
2017-04-01T20:01:43.525Z,83.25
2017-04-01T20:02:44.220Z,83.34
2017-04-01T20:03:44.923Z,83.72
2017-04-01T20:04:45.604Z,83.92
2017-04-01T20:05:46.331Z,83.72
2017-04-01T20:06:47.032Z,83.44
2017-04-01T20:07:47.732Z,83.53
2017-04-01T20:08:48.428Z,83.82
2017-04-01T20:09:49.494Z,84.3
2017-04-01T20:10:50.227Z,84.3
2017-04-01T20:11:50.906Z,84.3
2017-04-01T20:12:51.596Z,84.58
2017-04-01T20:13:52.287Z,84.58
2017-04-01T20:14:52.977Z,84.97
2017-04-01T20:15:53.781Z,85.06
2017-04-01T20:16:54.479Z,84.97
2017-04-01T20:17:55.182Z,85.64
2017-04-01T20:18:55.865Z,85.83
2017-04-01T20:19:56.864Z,86.12
2017-04-01T20:20:57.574Z,86.02
2017-04-01T20:21:58.275Z,85.93
2017-04-01T20:22:59.106Z,86.69